createdAt,value
2017-10-30T00:00:23.824Z,1023.05
2017-10-30T00:01:23.811Z,1023.06
2017-10-30T00:02:23.796Z,1023.07
2017-10-30T00:03:23.783Z,1023.09
2017-10-30T00:04:23.768Z,1023.09
2017-10-30T00:05:23.754Z,1023.16
2017-10-30T00:06:23.740Z,1023.14
2017-10-30T00:07:23.726Z,1023.16
2017-10-30T00:08:23.711Z,1023.20
2017-10-30T00:09:23.713Z,1023.23
2017-10-30T00:10:23.683Z,1023.22
2017-10-30T00:11:23.670Z,1023.22
2017-10-30T00:12:23.655Z,1023.25
2017-10-30T00:13:23.643Z,1023.28
2017-10-30T00:14:23.627Z,1023.29
2017-10-30T00:15:23.613Z,1023.29
2017-10-30T00:16:23.598Z,1023.29
2017-10-30T00:17:23.584Z,1023.27
2017-10-30T00:18:23.576Z,1023.25
2017-10-30T00:19:23.556Z,1023.22
2017-10-30T00:20:23.541Z,1023.23
2017-10-30T00:21:23.531Z,1023.25
2017-10-30T00:22:23.514Z,1023.26
2017-10-30T00:23:23.499Z,1023.28
2017-10-30T00:24:23.485Z,1023.23
2017-10-30T00:25:23.471Z,1023.25
2017-10-30T00:26:23.456Z,1023.22
2017-10-30T00:27:23.447Z,1023.25
2017-10-30T00:28:23.428Z,1023.24
2017-10-30T00:29:23.414Z,1023.28
2017-10-30T00:30:23.400Z,1023.21
2017-10-30T00:31:23.386Z,1023.25
2017-10-30T00:32:23.374Z,1023.23
2017-10-30T00:33:23.358Z,1023.25
2017-10-30T00:34:23.348Z,1023.24
2017-10-30T00:35:23.329Z,1023.26
2017-10-30T00:36:23.314Z,1023.29
2017-10-30T00:37:23.300Z,1023.26
2017-10-30T00:38:23.287Z,1023.25
2017-10-30T00:39:23.272Z,1023.26
2017-10-30T00:40:23.258Z,1023.29
2017-10-30T00:41:23.244Z,1023.29
2017-10-30T00:42:23.230Z,1023.32
2017-10-30T00:43:23.216Z,1023.37
2017-10-30T00:44:23.201Z,1023.36
2017-10-30T00:45:23.187Z,1023.35
2017-10-30T00:46:23.173Z,1023.38
2017-10-30T00:47:23.158Z,1023.37
2017-10-30T00:48:23.143Z,1023.37
2017-10-30T00:49:23.130Z,1023.39
2017-10-30T00:50:23.115Z,1023.44
2017-10-30T00:51:23.102Z,1023.41
2017-10-30T00:52:23.087Z,1023.36
2017-10-30T00:53:23.073Z,1023.42
2017-10-30T00:54:23.060Z,1023.42
2017-10-30T00:55:23.048Z,1023.41
2017-10-30T00:56:23.030Z,1023.40
2017-10-30T00:57:23.016Z,1023.43
2017-10-30T00:58:23.002Z,1023.43
2017-10-30T00:59:22.987Z,1023.37
2017-10-30T01:00:22.973Z,1023.39
2017-10-30T01:01:22.959Z,1023.37
2017-10-30T01:02:22.944Z,1023.36
2017-10-30T01:03:22.935Z,1023.35
2017-10-30T01:04:22.915Z,1023.32
2017-10-30T01:05:22.902Z,1023.33
2017-10-30T01:06:22.887Z,1023.34
2017-10-30T01:07:22.872Z,1023.38
2017-10-30T01:08:22.859Z,1023.42
2017-10-30T01:09:22.844Z,1023.48
2017-10-30T01:10:22.831Z,1023.51
2017-10-30T01:11:22.817Z,1023.53
2017-10-30T01:12:22.801Z,1023.50
2017-10-30T01:13:22.789Z,1023.49
2017-10-30T01:14:22.773Z,1023.50
2017-10-30T01:15:22.759Z,1023.56
2017-10-30T01:16:22.753Z,1023.51
2017-10-30T01:17:22.729Z,1023.50
2017-10-30T01:18:22.716Z,1023.45
2017-10-30T01:19:22.702Z,1023.41
2017-10-30T01:20:22.687Z,1023.40
2017-10-30T01:21:22.672Z,1023.42
2017-10-30T01:22:22.658Z,1023.42
2017-10-30T01:23:22.644Z,1023.35
2017-10-30T01:24:22.629Z,1023.36
2017-10-30T01:25:22.616Z,1023.32
2017-10-30T01:26:22.602Z,1023.33
2017-10-30T01:27:22.587Z,1023.30
2017-10-30T01:28:22.573Z,1023.31
2017-10-30T01:29:22.558Z,1023.33
2017-10-30T01:30:22.544Z,1023.35
2017-10-30T01:31:22.530Z,1023.39
2017-10-30T01:32:22.515Z,1023.34
2017-10-30T01:33:22.501Z,1023.35
2017-10-30T01:34:22.487Z,1023.36
2017-10-30T01:35:22.473Z,1023.37
2017-10-30T01:36:22.458Z,1023.36
2017-10-30T01:37:22.443Z,1023.36
2017-10-30T01:38:22.429Z,1023.44
2017-10-30T01:39:22.415Z,1023.41
2017-10-30T01:40:22.400Z,1023.43
2017-10-30T01:41:22.386Z,1023.41
2017-10-30T01:42:22.373Z,1023.40
2017-10-30T01:43:22.358Z,1023.44
2017-10-30T01:44:22.343Z,1023.43
2017-10-30T01:45:22.329Z,1023.42
2017-10-30T01:46:22.319Z,1023.43
2017-10-30T01:47:22.300Z,1023.44
2017-10-30T01:48:22.285Z,1023.47
2017-10-30T01:49:22.271Z,1023.51
2017-10-30T01:50:22.258Z,1023.51
2017-10-30T01:51:22.243Z,1023.55
2017-10-30T01:52:22.228Z,1023.54
2017-10-30T01:53:22.214Z,1023.53
2017-10-30T01:54:22.204Z,1023.54
2017-10-30T01:55:22.185Z,1023.55
2017-10-30T01:56:22.170Z,1023.55
2017-10-30T01:57:22.157Z,1023.66
2017-10-30T01:58:22.144Z,1023.57
2017-10-30T01:59:22.130Z,1023.62
2017-10-30T02:00:22.115Z,1023.65
2017-10-30T02:01:22.099Z,1023.62
2017-10-30T02:02:22.085Z,1023.64
2017-10-30T02:03:22.070Z,1023.63
2017-10-30T02:04:22.060Z,1023.68
2017-10-30T02:05:22.041Z,1023.66
2017-10-30T02:06:22.027Z,1023.61
2017-10-30T02:07:22.013Z,1023.62
2017-10-30T02:08:21.997Z,1023.62
2017-10-30T02:09:21.983Z,1023.55
2017-10-30T02:10:21.969Z,1023.60
2017-10-30T02:11:21.954Z,1023.63
2017-10-30T02:12:21.942Z,1023.62
2017-10-30T02:13:21.926Z,1023.61
2017-10-30T02:14:21.912Z,1023.60
2017-10-30T02:15:21.898Z,1023.60
2017-10-30T02:16:21.883Z,1023.58
2017-10-30T02:17:21.868Z,1023.67
2017-10-30T02:18:21.853Z,1023.67
2017-10-30T02:19:21.840Z,1023.67
2017-10-30T02:20:21.825Z,1023.64
2017-10-30T02:21:21.815Z,1023.69
2017-10-30T02:22:21.800Z,1023.66
2017-10-30T02:23:21.782Z,1023.64
2017-10-30T02:24:21.767Z,1023.72
2017-10-30T02:25:21.753Z,1023.70
2017-10-30T02:26:21.740Z,1023.67
2017-10-30T02:27:21.725Z,1023.67
2017-10-30T02:28:21.710Z,1023.66
2017-10-30T02:29:21.695Z,1023.63
2017-10-30T02:30:21.683Z,1023.62
2017-10-30T02:31:21.667Z,1023.59
2017-10-30T02:32:21.653Z,1023.61
2017-10-30T02:33:21.638Z,1023.61
2017-10-30T02:34:21.622Z,1023.60
2017-10-30T02:35:21.610Z,1023.56
2017-10-30T02:36:21.594Z,1023.58
2017-10-30T02:37:21.581Z,1023.58
2017-10-30T02:38:21.568Z,1023.57
2017-10-30T02:39:21.553Z,1023.57
2017-10-30T02:40:21.537Z,1023.64
2017-10-30T02:41:21.523Z,1023.66
2017-10-30T02:42:21.508Z,1023.70
2017-10-30T02:43:21.496Z,1023.76
2017-10-30T02:44:21.479Z,1023.77
2017-10-30T02:45:21.465Z,1023.76
2017-10-30T02:46:21.451Z,1023.76
2017-10-30T02:47:21.437Z,1023.78
2017-10-30T02:48:21.421Z,1023.78
2017-10-30T02:49:21.407Z,1023.80
2017-10-30T02:50:21.393Z,1023.82
2017-10-30T02:51:21.380Z,1023.79
2017-10-30T02:52:21.364Z,1023.74
2017-10-30T02:53:21.351Z,1023.73
2017-10-30T02:54:21.336Z,1023.74
2017-10-30T02:55:21.322Z,1023.75
2017-10-30T02:56:21.307Z,1023.71
2017-10-30T02:57:21.292Z,1023.70
2017-10-30T02:58:21.278Z,1023.71
2017-10-30T02:59:21.264Z,1023.72
2017-10-30T03:00:21.249Z,1023.75
2017-10-30T03:01:21.236Z,1023.74
2017-10-30T03:02:21.221Z,1023.75
2017-10-30T03:03:21.207Z,1023.75
2017-10-30T03:04:21.191Z,1023.80
2017-10-30T03:05:21.176Z,1023.82
2017-10-30T03:06:21.163Z,1023.79
2017-10-30T03:07:21.149Z,1023.79
2017-10-30T03:08:21.134Z,1023.81
2017-10-30T03:09:21.120Z,1023.81
2017-10-30T03:10:21.105Z,1023.83
2017-10-30T03:11:21.091Z,1023.84
2017-10-30T03:12:21.076Z,1023.86
2017-10-30T03:13:21.062Z,1023.87
2017-10-30T03:14:21.048Z,1023.91
2017-10-30T03:15:21.032Z,1023.91
2017-10-30T03:16:21.018Z,1023.92
2017-10-30T03:17:21.004Z,1023.92
2017-10-30T03:18:20.990Z,1023.93
2017-10-30T03:19:20.976Z,1023.96
2017-10-30T03:20:20.961Z,1023.96
2017-10-30T03:21:20.946Z,1023.96
2017-10-30T03:22:20.932Z,1023.96
2017-10-30T03:23:20.918Z,1023.93
2017-10-30T03:24:20.903Z,1023.93
2017-10-30T03:25:20.889Z,1023.95
2017-10-30T03:26:20.876Z,1024.00
2017-10-30T03:27:20.860Z,1023.96
2017-10-30T03:28:20.844Z,1024.02
2017-10-30T03:29:20.831Z,1024.04
2017-10-30T03:30:20.821Z,1024.07
2017-10-30T03:31:20.802Z,1024.07
2017-10-30T03:32:20.788Z,1024.10
2017-10-30T03:33:20.773Z,1024.11
2017-10-30T03:34:20.759Z,1024.14
2017-10-30T03:35:20.744Z,1024.16
2017-10-30T03:36:20.730Z,1024.15
2017-10-30T03:37:20.715Z,1024.17
2017-10-30T03:38:20.701Z,1024.22
2017-10-30T03:39:20.687Z,1024.23
2017-10-30T03:40:20.690Z,1024.30
2017-10-30T03:41:20.657Z,1024.28
2017-10-30T03:42:20.642Z,1024.33
2017-10-30T03:43:20.629Z,1024.37
2017-10-30T03:44:20.613Z,1024.38
2017-10-30T03:45:20.599Z,1024.36
2017-10-30T03:46:20.585Z,1024.36
2017-10-30T03:47:20.572Z,1024.38
2017-10-30T03:48:20.556Z,1024.40
2017-10-30T03:49:20.540Z,1024.38
2017-10-30T03:50:20.578Z,1024.41
2017-10-30T03:51:20.512Z,1024.45
2017-10-30T03:52:20.498Z,1024.45
2017-10-30T03:53:20.484Z,1024.45
2017-10-30T03:54:20.469Z,1024.43
2017-10-30T03:55:20.455Z,1024.45
2017-10-30T03:56:20.446Z,1024.50
2017-10-30T03:57:20.426Z,1024.50
2017-10-30T03:58:20.411Z,1024.50
2017-10-30T03:59:20.398Z,1024.50
2017-10-30T04:00:20.387Z,1024.52
2017-10-30T04:01:20.368Z,1024.53
2017-10-30T04:02:20.353Z,1024.52
2017-10-30T04:03:20.341Z,1024.52
2017-10-30T04:04:20.325Z,1024.51
2017-10-30T04:05:20.311Z,1024.53
2017-10-30T04:06:20.297Z,1024.55
2017-10-30T04:07:20.283Z,1024.57
2017-10-30T04:08:20.267Z,1024.56
2017-10-30T04:09:20.253Z,1024.59
2017-10-30T04:10:20.239Z,1024.55
2017-10-30T04:11:20.226Z,1024.51
2017-10-30T04:12:20.210Z,1024.58
2017-10-30T04:13:20.195Z,1024.58
2017-10-30T04:14:20.211Z,1024.61
2017-10-30T04:15:20.169Z,1024.62
2017-10-30T04:16:20.173Z,1024.62
2017-10-30T04:17:20.139Z,1024.61
2017-10-30T04:18:20.126Z,1024.59
2017-10-30T04:19:20.111Z,1024.62
2017-10-30T04:20:20.097Z,1024.67
2017-10-30T04:21:20.082Z,1024.67
2017-10-30T04:22:20.068Z,1024.69
2017-10-30T04:23:20.056Z,1024.70
2017-10-30T04:24:20.046Z,1024.69
2017-10-30T04:25:20.026Z,1024.68
2017-10-30T04:26:20.012Z,1024.66
2017-10-30T04:27:19.996Z,1024.68
2017-10-30T04:28:19.982Z,1024.67
2017-10-30T04:29:19.969Z,1024.67
2017-10-30T04:30:19.955Z,1024.66
2017-10-30T04:31:19.940Z,1024.66
2017-10-30T04:32:19.926Z,1024.67
2017-10-30T04:33:19.912Z,1024.73
2017-10-30T04:34:19.897Z,1024.72
2017-10-30T04:35:19.883Z,1024.76
2017-10-30T04:36:19.868Z,1024.75
2017-10-30T04:37:19.858Z,1024.75
2017-10-30T04:38:19.841Z,1024.74
2017-10-30T04:39:19.827Z,1024.70
2017-10-30T04:40:19.811Z,1024.72
2017-10-30T04:41:19.797Z,1024.71
2017-10-30T04:42:19.787Z,1024.77
2017-10-30T04:43:19.769Z,1024.77
2017-10-30T04:44:19.755Z,1024.83
2017-10-30T04:45:19.740Z,1024.84
2017-10-30T04:46:19.730Z,1024.87
2017-10-30T04:47:19.717Z,1024.88
2017-10-30T04:48:19.696Z,1024.91
2017-10-30T04:49:19.683Z,1024.95
2017-10-30T04:50:19.670Z,1024.95
2017-10-30T04:51:19.655Z,1024.98
2017-10-30T04:52:19.640Z,1024.99
2017-10-30T04:53:19.627Z,1024.98
2017-10-30T04:54:19.612Z,1025.03
2017-10-30T04:55:19.598Z,1024.99
2017-10-30T04:56:19.582Z,1025.01
2017-10-30T04:57:19.568Z,1025.04
2017-10-30T04:58:19.554Z,1025.03
2017-10-30T04:59:19.540Z,1025.06
2017-10-30T05:00:19.526Z,1025.04
2017-10-30T05:01:19.510Z,1025.02
2017-10-30T05:02:19.497Z,1025.05
2017-10-30T05:03:19.483Z,1025.04
2017-10-30T05:04:19.468Z,1025.03
2017-10-30T05:05:19.453Z,1025.02
2017-10-30T05:06:19.439Z,1025.01
2017-10-30T05:07:19.425Z,1025.02
2017-10-30T05:08:19.410Z,1025.02
2017-10-30T05:09:19.396Z,1024.98
2017-10-30T05:10:19.382Z,1024.95
2017-10-30T05:11:19.366Z,1025.01
2017-10-30T05:12:19.353Z,1025.00
2017-10-30T05:13:19.338Z,1025.04
2017-10-30T05:14:19.325Z,1025.01
2017-10-30T05:15:19.310Z,1025.05
2017-10-30T05:16:19.293Z,1025.07
2017-10-30T05:17:19.279Z,1025.09
2017-10-30T05:18:19.268Z,1025.07
2017-10-30T05:19:19.252Z,1025.15
2017-10-30T05:20:19.238Z,1025.15
2017-10-30T05:21:19.223Z,1025.19
2017-10-30T05:22:19.208Z,1025.19
2017-10-30T05:23:19.194Z,1025.19
2017-10-30T05:24:19.179Z,1025.20
2017-10-30T05:25:19.165Z,1025.22
2017-10-30T05:26:19.150Z,1025.23
2017-10-30T05:27:19.136Z,1025.23
2017-10-30T05:28:19.123Z,1025.24
2017-10-30T05:29:19.111Z,1025.21
2017-10-30T05:30:19.093Z,1025.18
2017-10-30T05:31:19.079Z,1025.26
2017-10-30T05:32:19.063Z,1025.23
2017-10-30T05:33:19.049Z,1025.23
2017-10-30T05:34:19.034Z,1025.22
2017-10-30T05:35:19.020Z,1025.24
2017-10-30T05:36:19.005Z,1025.20
2017-10-30T05:37:18.992Z,1025.26
2017-10-30T05:38:18.981Z,1025.26
2017-10-30T05:39:18.963Z,1025.26
2017-10-30T05:40:18.951Z,1025.27
2017-10-30T05:41:18.940Z,1025.26
2017-10-30T05:42:18.922Z,1025.27
2017-10-30T05:43:18.908Z,1025.29
2017-10-30T05:44:18.890Z,1025.31
2017-10-30T05:45:18.876Z,1025.35
2017-10-30T05:46:18.864Z,1025.33
2017-10-30T05:47:18.848Z,1025.32
2017-10-30T05:48:18.848Z,1025.37
2017-10-30T05:49:18.818Z,1025.38
2017-10-30T05:50:18.804Z,1025.37
2017-10-30T05:51:18.790Z,1025.35
2017-10-30T05:52:18.774Z,1025.40
2017-10-30T05:53:18.760Z,1025.43
2017-10-30T05:54:18.747Z,1025.39
2017-10-30T05:55:18.733Z,1025.42
2017-10-30T05:56:18.718Z,1025.40
2017-10-30T05:57:18.703Z,1025.38
2017-10-30T05:58:18.693Z,1025.41
2017-10-30T05:59:18.675Z,1025.44
2017-10-30T06:00:18.659Z,1025.40
2017-10-30T06:01:18.646Z,1025.42
2017-10-30T06:02:18.630Z,1025.44
2017-10-30T06:03:18.616Z,1025.39
2017-10-30T06:04:18.601Z,1025.31
2017-10-30T06:05:18.588Z,1025.36
2017-10-30T06:06:18.573Z,1025.34
2017-10-30T06:07:18.558Z,1025.34
2017-10-30T06:08:18.543Z,1025.34
2017-10-30T06:09:18.533Z,1025.38
2017-10-30T06:10:18.514Z,1025.40
2017-10-30T06:11:18.501Z,1025.46
2017-10-30T06:12:18.485Z,1025.44
2017-10-30T06:13:18.470Z,1025.44
2017-10-30T06:14:18.457Z,1025.52
2017-10-30T06:15:18.443Z,1025.48
2017-10-30T06:16:18.428Z,1025.52
2017-10-30T06:17:18.414Z,1025.49
2017-10-30T06:18:18.400Z,1025.53
2017-10-30T06:19:18.385Z,1025.53
2017-10-30T06:20:18.370Z,1025.55
2017-10-30T06:21:18.356Z,1025.60
2017-10-30T06:22:18.342Z,1025.61
2017-10-30T06:23:18.326Z,1025.61
2017-10-30T06:24:18.311Z,1025.62
2017-10-30T06:25:18.298Z,1025.62
2017-10-30T06:26:18.282Z,1025.63
2017-10-30T06:27:18.269Z,1025.62
2017-10-30T06:28:18.254Z,1025.62
2017-10-30T06:29:18.240Z,1025.66
2017-10-30T06:30:18.225Z,1025.62
2017-10-30T06:31:18.211Z,1025.63
2017-10-30T06:32:18.195Z,1025.64
2017-10-30T06:33:18.181Z,1025.68
2017-10-30T06:34:18.167Z,1025.68
2017-10-30T06:35:18.151Z,1025.68
2017-10-30T06:36:18.138Z,1025.71
2017-10-30T06:37:18.124Z,1025.74
2017-10-30T06:38:18.109Z,1025.73
2017-10-30T06:39:18.094Z,1025.73
2017-10-30T06:40:18.078Z,1025.77
2017-10-30T06:41:18.066Z,1025.79
2017-10-30T06:42:18.051Z,1025.79
2017-10-30T06:43:18.037Z,1025.83
2017-10-30T06:44:18.021Z,1025.86
2017-10-30T06:45:18.007Z,1025.85
2017-10-30T06:46:17.999Z,1025.85
2017-10-30T06:47:17.979Z,1025.85
2017-10-30T06:48:17.962Z,1025.89
2017-10-30T06:49:17.949Z,1025.88
2017-10-30T06:50:17.934Z,1025.89
2017-10-30T06:51:17.919Z,1025.90
2017-10-30T06:52:17.910Z,1025.93
2017-10-30T06:53:17.890Z,1025.91
2017-10-30T06:54:17.893Z,1025.92
2017-10-30T06:55:17.861Z,1025.93
2017-10-30T06:56:17.846Z,1025.93
2017-10-30T06:57:17.832Z,1025.96
2017-10-30T06:58:17.816Z,1025.96
2017-10-30T06:59:17.803Z,1025.94
2017-10-30T07:00:17.787Z,1025.93
2017-10-30T07:01:17.774Z,1025.98
2017-10-30T07:02:17.759Z,1026.02
2017-10-30T07:03:17.745Z,1026.07
2017-10-30T07:04:17.730Z,1026.11
2017-10-30T07:05:17.716Z,1026.11
2017-10-30T07:06:17.701Z,1026.18
2017-10-30T07:07:17.687Z,1026.18
2017-10-30T07:08:17.671Z,1026.25
2017-10-30T07:09:17.657Z,1026.27
2017-10-30T07:10:17.642Z,1026.26
2017-10-30T07:11:17.639Z,1026.29
2017-10-30T07:12:17.613Z,1026.32
2017-10-30T07:13:17.599Z,1026.33
2017-10-30T07:14:17.585Z,1026.33
2017-10-30T07:15:17.570Z,1026.34
2017-10-30T07:16:17.555Z,1026.33
2017-10-30T07:17:17.542Z,1026.34
2017-10-30T07:18:17.527Z,1026.37
2017-10-30T07:19:17.513Z,1026.38
2017-10-30T07:20:17.497Z,1026.37
2017-10-30T07:21:17.484Z,1026.38
2017-10-30T07:22:17.469Z,1026.41
2017-10-30T07:23:17.453Z,1026.43
2017-10-30T07:24:17.444Z,1026.45
2017-10-30T07:25:17.425Z,1026.48
2017-10-30T07:26:17.411Z,1026.48
2017-10-30T07:27:17.423Z,1026.51
2017-10-30T07:28:17.381Z,1026.53
2017-10-30T07:29:17.367Z,1026.52
2017-10-30T07:30:17.354Z,1026.54
2017-10-30T07:31:17.339Z,1026.55
2017-10-30T07:32:17.324Z,1026.59
2017-10-30T07:33:17.316Z,1026.57
2017-10-30T07:34:17.296Z,1026.62
2017-10-30T07:35:17.281Z,1026.62
2017-10-30T07:36:17.266Z,1026.62
2017-10-30T07:37:17.253Z,1026.63
2017-10-30T07:38:17.238Z,1026.61
2017-10-30T07:39:17.223Z,1026.61
2017-10-30T07:40:17.209Z,1026.62
2017-10-30T07:41:17.194Z,1026.63
2017-10-30T07:42:17.181Z,1026.62
2017-10-30T07:43:17.167Z,1026.65
2017-10-30T07:44:17.156Z,1026.66
2017-10-30T07:45:17.136Z,1026.69
2017-10-30T07:46:17.123Z,1026.67
2017-10-30T07:47:17.110Z,1026.66
2017-10-30T07:48:17.095Z,1026.69
2017-10-30T07:49:17.080Z,1026.68
2017-10-30T07:50:17.066Z,1026.75
2017-10-30T07:51:17.051Z,1026.74
2017-10-30T07:52:17.037Z,1026.69
2017-10-30T07:53:17.034Z,1026.73
2017-10-30T07:54:17.009Z,1026.75
2017-10-30T07:55:16.996Z,1026.77
2017-10-30T07:56:16.980Z,1026.72
2017-10-30T07:57:16.966Z,1026.73
2017-10-30T07:58:16.953Z,1026.74
2017-10-30T07:59:16.972Z,1026.72
2017-10-30T08:00:16.923Z,1026.73
2017-10-30T08:01:16.911Z,1026.76
2017-10-30T08:02:16.896Z,1026.74
2017-10-30T08:03:16.883Z,1026.76
2017-10-30T08:04:16.867Z,1026.77
2017-10-30T08:05:16.853Z,1026.80
2017-10-30T08:06:16.839Z,1026.83
2017-10-30T08:07:16.826Z,1026.82
2017-10-30T08:08:16.811Z,1026.84
2017-10-30T08:09:16.797Z,1026.85
2017-10-30T08:10:16.783Z,1026.86
2017-10-30T08:11:16.770Z,1026.91
2017-10-30T08:12:16.758Z,1026.90
2017-10-30T08:13:16.741Z,1026.90
2017-10-30T08:14:16.727Z,1026.85
2017-10-30T08:15:16.716Z,1026.85
2017-10-30T08:16:16.700Z,1026.88
2017-10-30T08:17:16.685Z,1026.86
2017-10-30T08:18:16.671Z,1026.83
2017-10-30T08:19:16.662Z,1026.87
2017-10-30T08:20:16.643Z,1026.91
2017-10-30T08:21:16.629Z,1026.90
2017-10-30T08:22:16.615Z,1026.93
2017-10-30T08:23:16.606Z,1026.94
2017-10-30T08:24:16.591Z,1026.96
2017-10-30T08:25:16.574Z,1026.97
2017-10-30T08:26:16.560Z,1026.98
2017-10-30T08:27:16.546Z,1027.01
2017-10-30T08:28:16.531Z,1027.03
2017-10-30T08:29:16.518Z,1027.01
2017-10-30T08:30:16.504Z,1027.05
2017-10-30T08:31:16.490Z,1027.05
2017-10-30T08:32:16.477Z,1027.03
2017-10-30T08:33:16.462Z,1027.02
2017-10-30T08:34:16.450Z,1027.03
2017-10-30T08:35:16.435Z,1027.01
2017-10-30T08:36:16.421Z,1027.00
2017-10-30T08:37:16.407Z,1026.99
2017-10-30T08:38:16.396Z,1026.96
2017-10-30T08:39:16.381Z,1027.01
2017-10-30T08:40:16.367Z,1027.03
2017-10-30T08:41:16.352Z,1027.01
2017-10-30T08:42:16.339Z,1027.01
2017-10-30T08:43:16.326Z,1027.05
2017-10-30T08:44:16.311Z,1027.05
2017-10-30T08:45:16.298Z,1027.04
2017-10-30T08:46:16.285Z,1027.06
2017-10-30T08:47:16.271Z,1027.05
2017-10-30T08:48:16.257Z,1027.12
2017-10-30T08:49:16.243Z,1027.11
2017-10-30T08:50:16.230Z,1027.14
2017-10-30T08:51:16.223Z,1027.10
2017-10-30T08:52:16.204Z,1027.10
2017-10-30T08:53:16.188Z,1027.09
2017-10-30T08:54:16.177Z,1027.07
2017-10-30T08:55:16.167Z,1027.09
2017-10-30T08:56:16.153Z,1027.08
2017-10-30T08:57:16.136Z,1027.16
2017-10-30T08:58:16.122Z,1027.13
2017-10-30T08:59:16.110Z,1027.13
2017-10-30T09:00:16.096Z,1027.15
2017-10-30T09:01:16.084Z,1027.15
2017-10-30T09:02:16.070Z,1027.19
2017-10-30T09:03:16.057Z,1027.19
2017-10-30T09:04:16.043Z,1027.18
2017-10-30T09:05:16.030Z,1027.21
2017-10-30T09:06:16.018Z,1027.22
2017-10-30T09:07:16.005Z,1027.21
2017-10-30T09:08:15.992Z,1027.21
2017-10-30T09:09:15.981Z,1027.22
2017-10-30T09:10:15.966Z,1027.23
2017-10-30T09:11:15.953Z,1027.18
2017-10-30T09:12:15.939Z,1027.23
2017-10-30T09:13:15.927Z,1027.20
2017-10-30T09:14:15.915Z,1027.21
2017-10-30T09:15:15.902Z,1027.15
2017-10-30T09:16:15.889Z,1027.19
2017-10-30T09:17:15.878Z,1027.15
2017-10-30T09:18:15.965Z,1027.14
2017-10-30T09:19:15.852Z,1027.11
2017-10-30T09:20:15.839Z,1027.10
2017-10-30T09:21:15.826Z,1027.10
2017-10-30T09:22:15.815Z,1027.09
2017-10-30T09:23:15.801Z,1027.10
2017-10-30T09:24:15.790Z,1027.14
2017-10-30T09:25:15.776Z,1027.13
2017-10-30T09:26:15.765Z,1027.13
2017-10-30T09:27:15.753Z,1027.18
2017-10-30T09:28:15.751Z,1027.21
2017-10-30T09:29:15.728Z,1027.18
2017-10-30T09:30:15.715Z,1027.20
2017-10-30T09:31:15.704Z,1027.24
2017-10-30T09:32:15.692Z,1027.19
2017-10-30T09:33:15.680Z,1027.15
2017-10-30T09:34:15.668Z,1027.21
2017-10-30T09:35:15.656Z,1027.21
2017-10-30T09:36:15.643Z,1027.21
2017-10-30T09:37:15.632Z,1027.24
2017-10-30T09:38:15.619Z,1027.24
2017-10-30T09:39:15.613Z,1027.24
2017-10-30T09:40:15.595Z,1027.27
2017-10-30T09:41:15.584Z,1027.26
2017-10-30T09:42:15.573Z,1027.26
2017-10-30T09:43:15.560Z,1027.25
2017-10-30T09:44:15.548Z,1027.24
2017-10-30T09:45:15.538Z,1027.25
2017-10-30T09:46:15.525Z,1027.24
2017-10-30T09:47:15.514Z,1027.27
2017-10-30T09:48:15.502Z,1027.28
2017-10-30T09:49:15.491Z,1027.29
2017-10-30T09:50:15.480Z,1027.32
2017-10-30T09:51:15.469Z,1027.30
2017-10-30T09:52:15.456Z,1027.30
2017-10-30T09:53:15.445Z,1027.34
2017-10-30T09:54:15.441Z,1027.36
2017-10-30T09:55:15.423Z,1027.40
2017-10-30T09:56:15.411Z,1027.39
2017-10-30T09:57:15.401Z,1027.42
2017-10-30T09:58:15.438Z,1027.42
2017-10-30T09:59:15.378Z,1027.43
2017-10-30T10:00:15.365Z,1027.47
2017-10-30T10:01:15.355Z,1027.44
2017-10-30T10:02:15.344Z,1027.43
2017-10-30T10:03:15.383Z,1027.46
2017-10-30T10:04:15.321Z,1027.52
2017-10-30T10:05:15.311Z,1027.53
2017-10-30T10:06:15.300Z,1027.51
2017-10-30T10:07:15.289Z,1027.49
2017-10-30T10:08:15.328Z,1027.51
2017-10-30T10:09:15.267Z,1027.56
2017-10-30T10:10:15.256Z,1027.54
2017-10-30T10:11:15.249Z,1027.55
2017-10-30T10:12:15.233Z,1027.55
2017-10-30T10:13:15.324Z,1027.56
2017-10-30T10:14:15.213Z,1027.57
2017-10-30T10:15:15.202Z,1027.60
2017-10-30T10:16:15.190Z,1027.59
2017-10-30T10:17:15.180Z,1027.57
2017-10-30T10:18:15.170Z,1027.59
2017-10-30T10:19:15.160Z,1027.60
2017-10-30T10:20:15.149Z,1027.60
2017-10-30T10:21:15.137Z,1027.58
2017-10-30T10:22:15.128Z,1027.55
2017-10-30T10:23:15.130Z,1027.59
2017-10-30T10:24:15.106Z,1027.55
2017-10-30T10:25:15.096Z,1027.57
2017-10-30T10:26:15.086Z,1027.61
2017-10-30T10:27:15.076Z,1027.59
2017-10-30T10:28:15.065Z,1027.60
2017-10-30T10:29:15.055Z,1027.61
2017-10-30T10:30:15.045Z,1027.62
2017-10-30T10:31:15.040Z,1027.62
2017-10-30T10:32:15.024Z,1027.61
2017-10-30T10:33:15.013Z,1027.64
2017-10-30T10:34:15.004Z,1027.64
2017-10-30T10:35:14.996Z,1027.63
2017-10-30T10:36:14.983Z,1027.64
2017-10-30T10:37:14.973Z,1027.66
2017-10-30T10:38:14.965Z,1027.66
2017-10-30T10:39:14.954Z,1027.67
2017-10-30T10:40:14.943Z,1027.68
2017-10-30T10:41:14.934Z,1027.68
2017-10-30T10:42:14.924Z,1027.68
2017-10-30T10:43:14.915Z,1027.69
2017-10-30T10:44:14.906Z,1027.68
2017-10-30T10:45:14.901Z,1027.69
2017-10-30T10:46:14.889Z,1027.73
2017-10-30T10:47:14.882Z,1027.76
2017-10-30T10:48:14.864Z,1027.73
2017-10-30T10:49:14.855Z,1027.78
2017-10-30T10:50:14.845Z,1027.79
2017-10-30T10:51:14.836Z,1027.81
2017-10-30T10:52:14.826Z,1027.82
2017-10-30T10:53:14.816Z,1027.79
2017-10-30T10:54:14.808Z,1027.83
2017-10-30T10:55:14.797Z,1027.82
2017-10-30T10:56:14.787Z,1027.84
2017-10-30T10:57:14.784Z,1027.84
2017-10-30T10:58:14.769Z,1027.85
2017-10-30T10:59:14.763Z,1027.85
2017-10-30T11:00:14.748Z,1027.88
2017-10-30T11:01:14.740Z,1027.90
2017-10-30T11:02:14.729Z,1027.84
2017-10-30T11:03:14.720Z,1027.85
2017-10-30T11:04:14.709Z,1027.89
2017-10-30T11:05:14.700Z,1027.88
2017-10-30T11:06:14.692Z,1027.88
2017-10-30T11:07:14.681Z,1027.85
2017-10-30T11:08:14.671Z,1027.85
2017-10-30T11:09:14.663Z,1027.82
2017-10-30T11:10:14.652Z,1027.81
2017-10-30T11:11:14.642Z,1027.80
2017-10-30T11:12:14.632Z,1027.79
2017-10-30T11:13:14.623Z,1027.78
2017-10-30T11:14:14.613Z,1027.81
2017-10-30T11:15:14.604Z,1027.80
2017-10-30T11:16:14.594Z,1027.82
2017-10-30T11:17:14.589Z,1027.78
2017-10-30T11:18:14.575Z,1027.82
2017-10-30T11:19:14.567Z,1027.80
2017-10-30T11:20:14.556Z,1027.85
2017-10-30T11:21:14.548Z,1027.83
2017-10-30T11:22:14.539Z,1027.83
2017-10-30T11:23:14.532Z,1027.83
2017-10-30T11:24:14.519Z,1027.88
2017-10-30T11:25:14.509Z,1027.85
2017-10-30T11:26:14.499Z,1027.86
2017-10-30T11:27:14.495Z,1027.85
2017-10-30T11:28:14.480Z,1027.86
2017-10-30T11:29:14.471Z,1027.90
2017-10-30T11:30:14.472Z,1027.84
2017-10-30T11:31:14.451Z,1027.90
2017-10-30T11:32:14.441Z,1027.94
2017-10-30T11:33:14.433Z,1027.88
2017-10-30T11:34:14.421Z,1027.87
2017-10-30T11:35:14.412Z,1027.88
2017-10-30T11:36:14.401Z,1027.86
2017-10-30T11:37:14.391Z,1027.83
2017-10-30T11:38:14.382Z,1027.81
2017-10-30T11:39:14.372Z,1027.76
2017-10-30T11:40:14.362Z,1027.76
2017-10-30T11:41:14.352Z,1027.78
2017-10-30T11:42:14.343Z,1027.79
2017-10-30T11:43:14.333Z,1027.79
2017-10-30T11:44:14.324Z,1027.83
2017-10-30T11:45:14.314Z,1027.78
2017-10-30T11:46:14.305Z,1027.82
2017-10-30T11:47:14.296Z,1027.74
2017-10-30T11:48:14.286Z,1027.71
2017-10-30T11:49:14.277Z,1027.69
2017-10-30T11:50:14.267Z,1027.65
2017-10-30T11:51:14.258Z,1027.72
2017-10-30T11:52:14.249Z,1027.70
2017-10-30T11:53:14.239Z,1027.74
2017-10-30T11:54:14.230Z,1027.75
2017-10-30T11:55:14.221Z,1027.78
2017-10-30T11:56:14.217Z,1027.77
2017-10-30T11:57:14.203Z,1027.79
2017-10-30T11:58:14.194Z,1027.77
2017-10-30T11:59:14.185Z,1027.78
2017-10-30T12:00:14.176Z,1027.71
2017-10-30T12:01:14.175Z,1027.75
2017-10-30T12:02:14.158Z,1027.74
2017-10-30T12:03:14.150Z,1027.81
2017-10-30T12:04:14.138Z,1027.74
2017-10-30T12:05:14.141Z,1027.78